createdAt,value
2023-03-29T00:03:45.782Z,80.23
2023-03-29T00:07:47.275Z,79.84
2023-03-29T00:11:48.707Z,77.32
2023-03-29T00:15:50.436Z,84.54
2023-03-29T00:19:51.877Z,79.25
2023-03-29T00:23:53.383Z,77.43
2023-03-29T00:27:54.930Z,78.34
2023-03-29T00:31:56.528Z,83.98
2023-03-29T00:35:58.176Z,84.59
2023-03-29T00:39:59.619Z,86.50
2023-03-29T00:44:03.696Z,85.11
2023-03-29T00:48:15.848Z,83.80
2023-03-29T00:52:21.360Z,81.81
2023-03-29T00:56:29.879Z,80.89
2023-03-29T01:00:36.801Z,83.92
2023-03-29T01:04:46.225Z,82.23
2023-03-29T01:08:53.357Z,82.22
2023-03-29T01:13:06.521Z,78.35
2023-03-29T01:17:08.104Z,76.43
2023-03-29T01:21:20.238Z,83.04
2023-03-29T01:25:41.960Z,79.43
2023-03-29T01:29:55.196Z,77.29
2023-03-29T01:34:11.035Z,74.27
2023-03-29T01:38:19.380Z,72.89
2023-03-29T01:42:46.547Z,73.74
2023-03-29T01:46:55.896Z,72.16
2023-03-29T01:51:05.366Z,72.39
2023-03-29T01:55:14.737Z,74.73
2023-03-29T01:59:31.067Z,70.96
2023-03-29T02:03:34.353Z,71.12
2023-03-29T02:07:38.979Z,69.55
2023-03-29T02:11:43.199Z,79.06
2023-03-29T02:15:46.544Z,74.66
2023-03-29T02:19:53.345Z,72.21
2023-03-29T02:23:57.966Z,69.34
2023-03-29T02:27:59.902Z,68.49
2023-03-29T02:32:16.667Z,75.36
2023-03-29T02:36:23.825Z,76.13
2023-03-29T02:40:26.356Z,76.20
2023-03-29T02:44:31.275Z,80.77
2023-03-29T02:48:36.831Z,76.39
2023-03-29T02:52:42.946Z,77.76
2023-03-29T02:56:49.759Z,77.84
2023-03-29T03:00:51.276Z,76.92
2023-03-29T03:04:53.434Z,73.42
2023-03-29T03:08:55.307Z,73.44
2023-03-29T03:12:56.846Z,72.10
2023-03-29T03:16:58.303Z,72.79
2023-03-29T03:21:04.604Z,72.65
2023-03-29T03:25:06.588Z,72.46
2023-03-29T03:29:08.116Z,73.03
2023-03-29T03:33:34.105Z,73.46
2023-03-29T03:37:41.882Z,73.29
2023-03-29T03:41:43.997Z,74.99
2023-03-29T03:45:45.522Z,76.75
2023-03-29T03:49:51.455Z,83.06
2023-03-29T03:53:54.912Z,79.18
2023-03-29T03:58:08.290Z,81.50
2023-03-29T04:02:10.306Z,87.13
2023-03-29T04:06:13.480Z,84.83
2023-03-29T04:10:52.312Z,87.01
2023-03-29T04:14:58.573Z,85.62
2023-03-29T04:19:01.790Z,84.97
2023-03-29T04:23:03.660Z,86.31
2023-03-29T04:27:05.307Z,84.55
2023-03-29T04:31:14.806Z,88.66
2023-03-29T04:35:25.625Z,89.24
2023-03-29T04:39:31.857Z,87.09
2023-03-29T04:43:34.441Z,85.27
2023-03-29T04:47:46.227Z,84.95
2023-03-29T04:51:53.233Z,84.88
2023-03-29T04:55:59.378Z,84.02
2023-03-29T05:00:21.172Z,81.93
2023-03-29T05:04:41.277Z,80.50
2023-03-29T05:08:48.102Z,80.63
2023-03-29T05:13:16.737Z,78.11
2023-03-29T05:17:18.407Z,84.55
2023-03-29T05:21:21.958Z,83.19
2023-03-29T05:25:23.704Z,77.40
2023-03-29T05:29:25.278Z,80.19
2023-03-29T05:33:35.447Z,78.13
2023-03-29T05:37:38.972Z,80.31
2023-03-29T05:41:41.652Z,76.73
2023-03-29T05:46:07.203Z,76.19
2023-03-29T05:50:15.322Z,76.57
2023-03-29T05:54:16.861Z,76.18
2023-03-29T05:58:20.137Z,77.27
2023-03-29T06:02:23.186Z,81.53
2023-03-29T06:06:27.475Z,83.07
2023-03-29T06:10:29.707Z,80.35
2023-03-29T06:14:45.596Z,75.64
2023-03-29T06:19:17.255Z,76.46
2023-03-29T06:23:20.885Z,77.90
2023-03-29T06:27:23.456Z,77.03
2023-03-29T06:31:25.755Z,80.48
2023-03-29T06:35:27.770Z,72.33
2023-03-29T06:39:40.951Z,71.66
2023-03-29T06:43:55.515Z,74.28
2023-03-29T06:47:59.874Z,72.39
2023-03-29T06:52:01.460Z,73.69
2023-03-29T06:56:09.041Z,72.16
2023-03-29T07:00:19.372Z,68.89
2023-03-29T07:04:37.549Z,68.53
2023-03-29T07:08:46.795Z,67.33
2023-03-29T07:13:00.768Z,65.19
2023-03-29T07:17:04.141Z,65.20
2023-03-29T07:21:12.700Z,65.67
2023-03-29T07:25:16.395Z,63.37
2023-03-29T07:29:18.057Z,65.41
2023-03-29T07:33:20.089Z,64.16
2023-03-29T07:37:28.370Z,62.09
2023-03-29T07:41:31.439Z,61.01
2023-03-29T07:45:42.210Z,60.25
2023-03-29T07:49:45.900Z,60.04
2023-03-29T07:53:47.408Z,58.47
2023-03-29T07:58:09.236Z,56.21
2023-03-29T08:02:11.610Z,56.59
2023-03-29T08:06:19.507Z,57.82
2023-03-29T08:10:22.385Z,59.86
2023-03-29T08:14:42.746Z,59.74
2023-03-29T08:18:49.258Z,57.85
2023-03-29T08:22:54.644Z,58.72
2023-03-29T08:27:26.077Z,54.71
2023-03-29T08:31:29.651Z,56.36
2023-03-29T08:35:31.514Z,58.04
2023-03-29T08:39:59.037Z,57.37
2023-03-29T08:44:29.177Z,57.40
2023-03-29T08:48:44.069Z,56.23
2023-03-29T08:52:57.449Z,56.40
2023-03-29T08:57:45.938Z,54.38
2023-03-29T09:01:55.835Z,55.91
2023-03-29T09:06:07.749Z,60.41
2023-03-29T09:10:16.518Z,55.96
2023-03-29T09:14:28.795Z,55.66
2023-03-29T09:18:42.158Z,58.04
2023-03-29T09:22:57.746Z,57.83
2023-03-29T09:27:10.743Z,56.32
2023-03-29T09:31:32.332Z,57.71
2023-03-29T09:35:56.280Z,56.78
2023-03-29T09:39:58.205Z,56.99
2023-03-29T09:44:30.116Z,56.09
2023-03-29T09:48:41.036Z,57.20
2023-03-29T09:52:42.983Z,58.07
2023-03-29T09:56:53.625Z,52.63
2023-03-29T10:01:03.271Z,53.28
2023-03-29T10:05:07.405Z,53.00
2023-03-29T10:09:17.130Z,53.10
2023-03-29T10:13:30.507Z,56.15
2023-03-29T10:17:39.393Z,52.91
2023-03-29T10:21:42.163Z,53.97
2023-03-29T10:25:44.392Z,52.75
2023-03-29T10:29:46.654Z,53.20
2023-03-29T10:33:53.111Z,54.13
2023-03-29T10:37:58.370Z,51.34
2023-03-29T10:42:03.174Z,51.63
2023-03-29T10:46:22.369Z,51.13
2023-03-29T10:50:24.788Z,52.02
2023-03-29T10:54:26.389Z,51.16
2023-03-29T10:58:41.123Z,51.94
2023-03-29T11:02:58.364Z,51.52
2023-03-29T11:07:19.685Z,50.44
2023-03-29T11:11:32.852Z,51.05
2023-03-29T11:16:02.434Z,51.50
2023-03-29T11:20:24.142Z,51.65
2023-03-29T11:24:28.428Z,51.00
2023-03-29T11:28:57.696Z,51.90
2023-03-29T11:33:47.464Z,50.42
2023-03-29T11:38:05.320Z,53.32
2023-03-29T11:42:16.438Z,51.10
2023-03-29T11:46:23.667Z,51.57
2023-03-29T11:50:35.306Z,51.49
2023-03-29T11:54:53.463Z,51.74
2023-03-29T11:59:01.304Z,51.65
2023-03-29T12:03:08.927Z,53.14
2023-03-29T12:07:23.677Z,54.04
2023-03-29T12:11:37.808Z,54.86
2023-03-29T12:15:45.531Z,51.92
2023-03-29T12:19:57.087Z,54.25
2023-03-29T12:23:58.754Z,53.42
2023-03-29T12:28:40.717Z,51.87
2023-03-29T12:32:58.824Z,51.69
2023-03-29T12:37:36.169Z,53.84
2023-03-29T12:42:14.230Z,53.46
2023-03-29T12:46:36.532Z,53.51
2023-03-29T12:50:46.858Z,52.79
2023-03-29T12:54:57.424Z,56.66
2023-03-29T12:58:58.782Z,51.48
2023-03-29T13:03:19.625Z,52.01
2023-03-29T13:07:24.175Z,53.08
2023-03-29T13:11:31.587Z,50.61
2023-03-29T13:15:35.816Z,51.93
2023-03-29T13:20:18.701Z,51.45
2023-03-29T13:24:22.711Z,53.35
2023-03-29T13:28:46.690Z,52.89
2023-03-29T13:33:10.945Z,52.50
2023-03-29T13:37:41.378Z,53.25
2023-03-29T13:41:43.054Z,52.12
2023-03-29T13:46:05.779Z,55.24
2023-03-29T13:50:17.766Z,54.06
2023-03-29T13:54:34.851Z,54.02
2023-03-29T13:58:46.418Z,53.32
2023-03-29T14:02:55.232Z,53.69
2023-03-29T14:06:57.586Z,53.86
2023-03-29T14:11:06.931Z,53.53
2023-03-29T14:15:23.198Z,54.11
2023-03-29T14:19:29.083Z,53.63
2023-03-29T14:23:33.622Z,53.38
2023-03-29T14:27:37.044Z,54.68
2023-03-29T14:31:40.984Z,55.65
2023-03-29T14:35:42.575Z,57.58
2023-03-29T14:39:44.604Z,55.49
2023-03-29T14:43:47.221Z,55.64
2023-03-29T14:47:49.921Z,57.61
2023-03-29T14:51:53.051Z,57.69
2023-03-29T14:55:55.535Z,58.13
2023-03-29T15:00:02.370Z,60.70
2023-03-29T15:04:10.170Z,61.21
2023-03-29T15:08:26.329Z,59.91
2023-03-29T15:12:32.310Z,61.03
2023-03-29T15:16:38.577Z,62.32
2023-03-29T15:20:41.618Z,62.49
2023-03-29T15:24:47.740Z,65.39
2023-03-29T15:28:55.707Z,66.67
2023-03-29T15:33:08.713Z,63.85
2023-03-29T15:37:12.275Z,62.55
2023-03-29T15:41:14.573Z,63.88
2023-03-29T15:45:18.578Z,62.91
2023-03-29T15:49:20.219Z,62.43
2023-03-29T15:53:23.471Z,63.28
2023-03-29T15:57:25.435Z,64.43
2023-03-29T16:01:37.554Z,68.36
2023-03-29T16:05:39.220Z,67.20
2023-03-29T16:09:41.069Z,64.56
2023-03-29T16:13:42.584Z,66.40
2023-03-29T16:17:44.196Z,64.52
2023-03-29T16:21:45.687Z,65.27
2023-03-29T16:25:47.118Z,63.57
2023-03-29T16:29:48.562Z,67.91
2023-03-29T16:33:50.612Z,74.49
2023-03-29T16:37:52.062Z,75.34
2023-03-29T16:41:53.461Z,78.08
2023-03-29T16:45:54.921Z,77.09
2023-03-29T16:49:56.492Z,76.64
2023-03-29T16:54:00.609Z,79.35
2023-03-29T16:58:02.469Z,79.16
2023-03-29T17:02:04.041Z,79.15
2023-03-29T17:06:06.775Z,76.97
2023-03-29T17:10:09.653Z,78.82
2023-03-29T17:14:11.287Z,75.58
2023-03-29T17:18:13.798Z,78.82
2023-03-29T17:22:15.758Z,78.94
2023-03-29T17:26:17.221Z,79.53
2023-03-29T17:30:18.864Z,81.57
2023-03-29T17:34:20.588Z,82.04
2023-03-29T17:38:22.485Z,80.91
2023-03-29T17:42:24.021Z,78.64
2023-03-29T17:46:25.798Z,78.35
2023-03-29T17:50:27.323Z,76.79
2023-03-29T17:54:28.888Z,77.26
2023-03-29T17:58:30.417Z,75.41
2023-03-29T18:02:31.962Z,73.63
2023-03-29T18:06:33.515Z,74.34
2023-03-29T18:10:36.677Z,80.01
2023-03-29T18:27:40.021Z,75.45
2023-03-29T18:47:18.263Z,78.67
2023-03-29T18:51:19.901Z,77.18
2023-03-29T19:13:20.374Z,74.44
2023-03-29T19:17:21.926Z,81.51
2023-03-29T19:21:23.651Z,78.28
2023-03-29T19:25:25.157Z,84.02
2023-03-29T19:29:26.604Z,76.77
2023-03-29T19:43:52.959Z,78.01
2023-03-29T19:47:55.805Z,83.70
2023-03-29T19:56:49.545Z,89.99
2023-03-29T20:00:57.979Z,88.64
2023-03-29T20:04:59.465Z,85.27
2023-03-29T20:09:00.964Z,83.92
2023-03-29T20:13:03.213Z,84.84
2023-03-29T20:17:04.781Z,87.70
2023-03-29T20:21:07.835Z,80.29
2023-03-29T20:25:09.449Z,82.94
2023-03-29T20:29:11.099Z,86.09
2023-03-29T20:33:12.611Z,89.09
2023-03-29T20:37:14.561Z,84.22
2023-03-29T20:41:16.043Z,81.66
2023-03-29T20:56:40.103Z,85.79
2023-03-29T21:00:41.693Z,86.20
2023-03-29T21:21:43.282Z,86.78
2023-03-29T21:37:01.950Z,91.50
2023-03-29T21:41:03.896Z,85.59
2023-03-29T21:57:57.405Z,83.67
2023-03-29T22:06:38.854Z,84.27
2023-03-29T22:10:41.415Z,90.02
2023-03-29T22:14:42.925Z,83.85
2023-03-29T22:18:49.482Z,87.15
2023-03-29T22:22:52.226Z,81.26
2023-03-29T22:26:53.634Z,83.09
2023-03-29T22:30:55.072Z,82.56
2023-03-29T22:58:07.572Z,89.71
2023-03-29T23:04:07.737Z,90.09
2023-03-29T23:08:21.846Z,93.81
2023-03-29T23:17:27.830Z,90.13
2023-03-29T23:21:29.255Z,93.24
2023-03-29T23:30:01.652Z,91.33
2023-03-29T23:34:03.237Z,98.24
2023-03-29T23:38:05.760Z,96.07
2023-03-29T23:42:07.293Z,93.63
2023-03-29T23:46:10.832Z,91.87
2023-03-29T23:50:13.938Z,91.20
